Asheville Regional, NC

7:09 PM EST on January 26, 2015 (GMT -0500)
Asheville Regional | Change Station
CLOSE
Current Station
Airport
Location: Asheville,
Elevation: 2169 ft
Nearby Weather Stations

Elev 2169 ft 35.43 °N, 82.54 °W | Updated 15 minutes ago

Overcast
Overcast
30 °F
Feels Like 19 °F
N
16
Wind Variable Wind from North
Gusts 25 mph

Today
High -- | Low -- °F
--% Chance of Precip.
Yesterday
High -- | Low -- °F
Precip. -- in
7:34 AM 5:51 PM
Waxing Crescent, 48% visible
Pressure 29.81 in
Visibility 10.0 miles
Clouds Few 1200 ft
Overcast 3400 ft
Windchill 19 °F
Dew Point 25 °F
Humidity 82%
Rainfall 0.02 in
Snow Depth Not available.
UV 0 out of 12
Pollen .40 out of 12
Air Quality Not available.
Flu Activity Not available.
METAR KAVL 262354Z 35014G22KT 10SM FEW012 OVC034 M01/M04 A2978 RMK AO2 SLP092 T10111039 10050 21011 53025

More Conditions Fewer Conditions

Pressure 29.81 in
Visibility 10.0 miles
Clouds Few 1200 ft
Overcast 3400 ft
Windchill 19 °F
Dew Point 25 °F
Humidity 82%
Rainfall 0.02 in
Snow Depth Not available.
UV 0 out of 12
Pollen .40 out of 12
Air Quality Not available.
Flu Activity Not available.
METAR KAVL 262354Z 35014G22KT 10SM FEW012 OVC034 M01/M04 A2978 RMK AO2 SLP092 T10111039 10050 21011 53025

More Conditions Fewer Conditions

10-Day Weather Forecast

Almanac

Astronomy

Jan. 26, 2015 Rise Set
Actual Time
Civil Twilight
Nautical Twilight
Astronomical Twilight
Moon
Length of Visible Light
Length of Day
Tomorrow will be .
, % of the Moon is Illuminated

Today's Extremes

State Highs State Lows

Community

WunderPhotos

Upload Photos

1,790,412 photos uploaded!

WunderBlogs® & News

Nearby

Air Quality

  Air Quality AQ Index Pollutant
Not available.

Snow Depth

Station Depth Elevation

Earthquake Activity

City Distance Mag. Time & Date
Minimum magnitude displayed is 2.5.

Coastal Water Temperatures

Place Temperature

Nearby Weather Stations